Aérodrome :
LOGIN :

S'inscrire | Disclaimer

   EN    FR    IT 

 










Légende :    VFR   VFR Marginal   IFR   IFR Intensif   IFR Très Intensif
Visi : 
Plafond : 
>= 8 km
>= 3000ft
5 à 8 km
1000 à 3000 ft
1500m à 5 km
500 à 1000 ft
800 à 1500m
200 à 500 ft
< 800m
< 200 ft
Symboles :   Orages  Brouillard  Fortes neiges  Fortes précipitations  Vent > 20 kt
SIGMETs :   Divers  Orages  Givrage  Turbulence  Onde Orograph.  Cendres Volcan.






- Altitude de l'aérodrome : 158 ft
- Code IATA : QAR


EHDL - Deelen Airbase

DERNIER METAR :
  • 182325Z AUTO 08005KT 330V130 9999 OVC290 19/16 Q1021 BLACKBLU

METARs EXPIRÉS :
  • 182255Z AUTO 07005KT 340V130 9999 OVC310 19/16 Q1021 BLACKBLU
  • 182225Z AUTO 07004KT 360V130 9999 OVC310 19/16 Q1021 BLACKBLU
  • 182155Z AUTO 05006KT 350V100 9999 OVC310 19/16 Q1021 BLACKBLU
  • 182125Z AUTO 05006KT 350V090 9999 OVC320 19/16 Q1022 BLACKBLU
  • 182055Z AUTO 04004KT 330V120 9999 OVC330 18/16 Q1020 BLACKBLU
  • 182025Z AUTO 04004KT 360V100 9999 OVC340 19/16 Q1014 BLACKBLU
  • 181955Z AUTO 05004KT 010V090 9999 FEW370 20/16 Q1013 BLACKBLU
  • 181925Z AUTO 05003KT 020V090 9999 NCD 21/17 Q1014 BLACKBLU
  • 181855Z AUTO 06004KT 9999 NCD 23/16 Q1017 BLACKBLU

Prévision TAF périmée.



MET'MAP, la Météo Aéronautique d'un coup d'oeil ! - Copyright ORBIFLY Décembre 2007 - Disclaimer

ORBIFLY MET'MAP TEAM :

Programmation & Développement : Alexandra Zaïnal
Sur une idée originale de : Baudouin d'Aumeries
Soutien technique & logistique : Manuel Goepfert
Assistance : Marc-Olivier Méhu




SOURCES & CREDITS :

   NOAA